This is the latest recevied weather packets stored in our database for station/object KJ5FA-9. If no packets are shown the sender has not sent any weather packets the latest 10 day(s).
| Time | Temp. | Humidity | Pressure | Rain* | Wind** | Luminosity | Snow |
|---|---|---|---|---|---|---|---|
| 1788337758 | 24.44° C | 88% | 1017.6 hPa | 0 mm | - | - | - |
| 1788337566 | 24.44° C | 88% | 1017.5 hPa | 0 mm | 0.89 m/s, 81° | - | - |
| 1788336258 | 25° C | 86% | 1017.5 hPa | 0 mm | - | - | - |
| 1788335766 | 25° C | 86% | 1017.5 hPa | 0 mm | 0 m/s | - | - |
| 1788334758 | 25° C | 84% | 1017.4 hPa | 0 mm | - | - | - |
| 1788333966 | 25° C | 83% | 1017.6 hPa | 0 mm | 0.89 m/s, 356° | - | - |
| 1788333258 | 25.56° C | 82% | 1017.5 hPa | 0 mm | - | - | - |
| 1788332166 | 25.56° C | 82% | 1017.6 hPa | 0 mm | 0 m/s | - | - |
| 1788331758 | 25.56° C | 82% | 1017.4 hPa | 0 mm | - | - | - |
| 1788330366 | 25.56° C | 81% | 1017.4 hPa | 0 mm | 0 m/s | - | - |
| 1788330258 | 25.56° C | 81% | 1017.3 hPa | 0 mm | - | - | - |
| 1788328758 | 26.11° C | 80% | 1017.5 hPa | 0 mm | - | - | - |
| 1788328566 | 26.11° C | 80% | 1017.3 hPa | 0 mm | 0 m/s | - | - |
| 1788327258 | 26.67° C | 77% | 1017.5 hPa | 0 mm | - | - | - |
| 1788326766 | 26.67° C | 77% | 1017.4 hPa | 0 mm | 0 m/s | - | - |
| 1788325758 | 26.67° C | 76% | 1017.1 hPa | 0 mm | - | - | - |
| 1788324966 | 27.22° C | 74% | 1017 hPa | 0 mm | 0 m/s | - | - |
| 1788324258 | 27.22° C | 73% | 1017 hPa | 0 mm | - | - | - |
| 1788323166 | 27.78° C | 70% | 1016.9 hPa | 0 mm | 0.45 m/s, 5° | - | - |
| 1788322758 | 27.78° C | 69% | 1016.7 hPa | 0 mm | - | - | - |
| 1788321366 | 28.89° C | 66% | 1016.8 hPa | 0 mm | 0.45 m/s, 330° | - | - |
| 1788321258 | 28.89° C | 66% | 1016.8 hPa | 0 mm | - | - | - |
| 1788319746 | 29.44° C | 63% | 1017.1 hPa | 0 mm | 0 m/s | - | - |
| 1788319206 | 28.89° C | 64% | 1016.8 hPa | 0 mm | 0 m/s | - | - |
| 1788315292 | 30° C | 58% | 1016.2 hPa | 0 mm | - | - | - |
* Rain latest hour (hover to see other rain measurements)
** Current wind speed in m/s (hover to see current wind gust speed)